Dearing, Kansas
Current Conditions -  °F | °C
As of 11:52 AM on Saturday 20 Dec 2014 (Local Time) from KCFV Reporting Station
Overcast Overcast  
Wind Chill: 38°   Ceiling: 2100
Heat Index: 43°   Visibility: 10mi
Dew Point: 34°   Wind: 9mph
Humidity: 71%   Direction: 210°SSW
Pressure: 30.22"   Gusts: NA
Location:  37.06°N, 95.71°W
Report Text: KCFV 201752Z AUTO 21008KT 10SM OVC021 06/01 A3022 RMK AO2 SLP238 T00610011 10072 20022 56007
Loading
Personal Weather Stations






























Interactive Weather Map New forecast layout! Learn more

10-Day Weather Forecast

Advertisements
Track Severe Weather on mobile